sensor_id;sensor_type;location;lat;lon;timestamp;pressure;altitude;pressure_sealevel;temperature
66372;BMP180;53168;51.146;17.120;2023-08-12T00:01:35;100826.40;;;15.10
66372;BMP180;53168;51.146;17.120;2023-08-12T00:04:55;100827.00;;;15.04
66372;BMP180;53168;51.146;17.120;2023-08-12T00:08:02;100826.60;;;15.10
66372;BMP180;53168;51.146;17.120;2023-08-12T00:11:12;100835.40;;;15.10
66372;BMP180;53168;51.146;17.120;2023-08-12T00:14:35;100840.60;;;15.10
66372;BMP180;53168;51.146;17.120;2023-08-12T00:17:32;100836.00;;;15.10
66372;BMP180;53168;51.146;17.120;2023-08-12T00:20:21;100840.00;;;15.10
66372;BMP180;53168;51.146;17.120;2023-08-12T00:23:28;100843.60;;;15.10
66372;BMP180;53168;51.146;17.120;2023-08-12T00:26:02;100842.20;;;15.10
66372;BMP180;53168;51.146;17.120;2023-08-12T00:28:36;100841.80;;;15.10
66372;BMP180;53168;51.146;17.120;2023-08-12T00:31:10;100836.60;;;15.10
66372;BMP180;53168;51.146;17.120;2023-08-12T00:33:43;100829.20;;;15.10
66372;BMP180;53168;51.146;17.120;2023-08-12T00:36:21;100824.60;;;15.00
66372;BMP180;53168;51.146;17.120;2023-08-12T00:38:57;100820.20;;;15.00
66372;BMP180;53168;51.146;17.120;2023-08-12T00:41:32;100812.40;;;14.90
66372;BMP180;53168;51.146;17.120;2023-08-12T00:44:07;100808.20;;;14.90
66372;BMP180;53168;51.146;17.120;2023-08-12T00:46:41;100808.40;;;14.90
66372;BMP180;53168;51.146;17.120;2023-08-12T00:49:18;100801.80;;;14.90
66372;BMP180;53168;51.146;17.120;2023-08-12T00:51:53;100799.60;;;14.90
66372;BMP180;53168;51.146;17.120;2023-08-12T00:54:29;100795.40;;;14.90
66372;BMP180;53168;51.146;17.120;2023-08-12T00:57:04;100790.40;;;14.90
66372;BMP180;53168;51.146;17.120;2023-08-12T00:59:41;100788.80;;;14.90
66372;BMP180;53168;51.146;17.120;2023-08-12T01:02:18;100783.40;;;14.90
66372;BMP180;53168;51.146;17.120;2023-08-12T01:04:52;100775.80;;;14.90
66372;BMP180;53168;51.146;17.120;2023-08-12T01:07:26;100774.80;;;14.96
66372;BMP180;53168;51.146;17.120;2023-08-12T01:09:59;100781.00;;;15.00
66372;BMP180;53168;51.146;17.120;2023-08-12T01:12:44;100785.00;;;15.00
66372;BMP180;53168;51.146;17.120;2023-08-12T01:15:22;100783.80;;;15.08
66372;BMP180;53168;51.146;17.120;2023-08-12T01:18:04;100783.80;;;15.10
66372;BMP180;53168;51.146;17.120;2023-08-12T01:20:40;100776.80;;;15.10
66372;BMP180;53168;51.146;17.120;2023-08-12T01:23:16;100775.40;;;15.18
66372;BMP180;53168;51.146;17.120;2023-08-12T01:25:49;100774.40;;;15.16
66372;BMP180;53168;51.146;17.120;2023-08-12T01:28:23;100774.80;;;15.10
66372;BMP180;53168;51.146;17.120;2023-08-12T01:31:05;100778.00;;;15.10
66372;BMP180;53168;51.146;17.120;2023-08-12T01:33:51;100776.60;;;15.10
66372;BMP180;53168;51.146;17.120;2023-08-12T01:36:30;100776.20;;;15.10
66372;BMP180;53168;51.146;17.120;2023-08-12T01:39:05;100776.40;;;15.08
66372;BMP180;53168;51.146;17.120;2023-08-12T01:41:43;100778.00;;;15.00
66372;BMP180;53168;51.146;17.120;2023-08-12T01:44:17;100776.40;;;15.00
66372;BMP180;53168;51.146;17.120;2023-08-12T01:46:52;100776.20;;;15.00
66372;BMP180;53168;51.146;17.120;2023-08-12T01:49:25;100777.80;;;15.00
66372;BMP180;53168;51.146;17.120;2023-08-12T01:51:59;100778.40;;;14.92
66372;BMP180;53168;51.146;17.120;2023-08-12T01:54:33;100777.80;;;14.90
66372;BMP180;53168;51.146;17.120;2023-08-12T01:57:07;100775.80;;;14.80
66372;BMP180;53168;51.146;17.120;2023-08-12T01:59:42;100773.80;;;14.80
66372;BMP180;53168;51.146;17.120;2023-08-12T02:02:17;100771.20;;;14.80
66372;BMP180;53168;51.146;17.120;2023-08-12T02:04:51;100764.40;;;14.70
66372;BMP180;53168;51.146;17.120;2023-08-12T02:07:25;100764.00;;;14.70
66372;BMP180;53168;51.146;17.120;2023-08-12T02:09:59;100760.80;;;14.70
66372;BMP180;53168;51.146;17.120;2023-08-12T02:12:33;100755.60;;;14.70
66372;BMP180;53168;51.146;17.120;2023-08-12T02:17:56;100745.80;;;14.70
66372;BMP180;53168;51.146;17.120;2023-08-12T02:20:31;100740.40;;;14.70
66372;BMP180;53168;51.146;17.120;2023-08-12T02:23:06;100733.40;;;14.70
66372;BMP180;53168;51.146;17.120;2023-08-12T02:25:40;100738.00;;;14.70
66372;BMP180;53168;51.146;17.120;2023-08-12T02:28:14;100738.60;;;14.80
66372;BMP180;53168;51.146;17.120;2023-08-12T02:30:47;100737.00;;;14.80
66372;BMP180;53168;51.146;17.120;2023-08-12T02:33:21;100747.40;;;14.90
66372;BMP180;53168;51.146;17.120;2023-08-12T02:35:57;100751.40;;;14.88
66372;BMP180;53168;51.146;17.120;2023-08-12T02:38:31;100748.20;;;14.80
66372;BMP180;53168;51.146;17.120;2023-08-12T02:41:05;100746.40;;;14.80
66372;BMP180;53168;51.146;17.120;2023-08-12T02:43:39;100743.40;;;14.70
66372;BMP180;53168;51.146;17.120;2023-08-12T02:46:13;100744.40;;;14.60
66372;BMP180;53168;51.146;17.120;2023-08-12T02:48:48;100745.40;;;14.60
66372;BMP180;53168;51.146;17.120;2023-08-12T02:51:22;100745.00;;;14.58
66372;BMP180;53168;51.146;17.120;2023-08-12T02:53:56;100745.80;;;14.50
66372;BMP180;53168;51.146;17.120;2023-08-12T02:56:37;100745.80;;;14.50
66372;BMP180;53168;51.146;17.120;2023-08-12T02:59:11;100752.00;;;14.50
66372;BMP180;53168;51.146;17.120;2023-08-12T03:01:46;100750.00;;;14.40
66372;BMP180;53168;51.146;17.120;2023-08-12T03:04:19;100747.00;;;14.40
66372;BMP180;53168;51.146;17.120;2023-08-12T03:06:55;100741.80;;;14.40
66372;BMP180;53168;51.146;17.120;2023-08-12T03:09:29;100742.00;;;14.40
66372;BMP180;53168;51.146;17.120;2023-08-12T03:12:03;100743.20;;;14.40
66372;BMP180;53168;51.146;17.120;2023-08-12T03:14:37;100748.20;;;14.40
66372;BMP180;53168;51.146;17.120;2023-08-12T03:17:11;100746.60;;;14.32
66372;BMP180;53168;51.146;17.120;2023-08-12T03:19:46;100744.00;;;14.30
66372;BMP180;53168;51.146;17.120;2023-08-12T03:22:20;100745.80;;;14.30
66372;BMP180;53168;51.146;17.120;2023-08-12T03:24:54;100743.80;;;14.30
66372;BMP180;53168;51.146;17.120;2023-08-12T03:27:28;100744.20;;;14.30
66372;BMP180;53168;51.146;17.120;2023-08-12T03:30:02;100741.80;;;14.30
66372;BMP180;53168;51.146;17.120;2023-08-12T03:32:36;100739.20;;;14.30
66372;BMP180;53168;51.146;17.120;2023-08-12T03:35:11;100739.00;;;14.30
66372;BMP180;53168;51.146;17.120;2023-08-12T03:37:45;100736.20;;;14.32
66372;BMP180;53168;51.146;17.120;2023-08-12T03:40:19;100739.00;;;14.34
66372;BMP180;53168;51.146;17.120;2023-08-12T03:42:54;100736.80;;;14.40
66372;BMP180;53168;51.146;17.120;2023-08-12T03:45:28;100740.80;;;14.40
66372;BMP180;53168;51.146;17.120;2023-08-12T03:48:05;100734.80;;;14.34
66372;BMP180;53168;51.146;17.120;2023-08-12T03:50:42;100738.40;;;14.30
66372;BMP180;53168;51.146;17.120;2023-08-12T03:53:18;100739.40;;;14.30
66372;BMP180;53168;51.146;17.120;2023-08-12T03:55:51;100743.00;;;14.32
66372;BMP180;53168;51.146;17.120;2023-08-12T03:58:29;100743.60;;;14.40
66372;BMP180;53168;51.146;17.120;2023-08-12T04:01:03;100748.00;;;14.40
66372;BMP180;53168;51.146;17.120;2023-08-12T04:03:40;100745.40;;;14.50
66372;BMP180;53168;51.146;17.120;2023-08-12T04:06:14;100736.40;;;14.60
66372;BMP180;53168;51.146;17.120;2023-08-12T04:08:50;100735.60;;;14.70
66372;BMP180;53168;51.146;17.120;2023-08-12T04:11:24;100730.40;;;14.80
66372;BMP180;53168;51.146;17.120;2023-08-12T04:13:58;100733.00;;;14.90
66372;BMP180;53168;51.146;17.120;2023-08-12T04:16:32;100735.00;;;14.90
66372;BMP180;53168;51.146;17.120;2023-08-12T04:19:07;100735.20;;;15.00
66372;BMP180;53168;51.146;17.120;2023-08-12T04:22:00;100731.20;;;15.12
66372;BMP180;53168;51.146;17.120;2023-08-12T04:24:37;100733.00;;;15.24
66372;BMP180;53168;51.146;17.120;2023-08-12T04:27:14;100737.00;;;15.30
66372;BMP180;53168;51.146;17.120;2023-08-12T04:29:50;100742.60;;;15.40
66372;BMP180;53168;51.146;17.120;2023-08-12T04:32:38;100738.80;;;15.40
66372;BMP180;53168;51.146;17.120;2023-08-12T04:35:17;100735.20;;;15.50
66372;BMP180;53168;51.146;17.120;2023-08-12T04:37:52;100733.20;;;15.50
66372;BMP180;53168;51.146;17.120;2023-08-12T04:40:43;100731.20;;;15.50
66372;BMP180;53168;51.146;17.120;2023-08-12T04:43:23;100729.80;;;15.60
66372;BMP180;53168;51.146;17.120;2023-08-12T04:45:58;100732.00;;;15.62
66372;BMP180;53168;51.146;17.120;2023-08-12T04:48:35;100727.60;;;15.70
66372;BMP180;53168;51.146;17.120;2023-08-12T04:51:09;100727.80;;;15.70
66372;BMP180;53168;51.146;17.120;2023-08-12T04:53:42;100727.60;;;15.80
66372;BMP180;53168;51.146;17.120;2023-08-12T04:56:17;100731.00;;;15.90
66372;BMP180;53168;51.146;17.120;2023-08-12T04:58:51;100731.40;;;16.00
66372;BMP180;53168;51.146;17.120;2023-08-12T05:01:25;100730.60;;;16.08
66372;BMP180;53168;51.146;17.120;2023-08-12T05:04:00;100733.00;;;16.10
66372;BMP180;53168;51.146;17.120;2023-08-12T05:06:34;100727.40;;;16.20
66372;BMP180;53168;51.146;17.120;2023-08-12T05:09:11;100727.20;;;16.30
66372;BMP180;53168;51.146;17.120;2023-08-12T05:11:47;100729.40;;;16.46
66372;BMP180;53168;51.146;17.120;2023-08-12T05:14:38;100732.80;;;16.58
66372;BMP180;53168;51.146;17.120;2023-08-12T05:17:23;100722.20;;;16.70
66372;BMP180;53168;51.146;17.120;2023-08-12T05:19:58;100718.40;;;17.00
66372;BMP180;53168;51.146;17.120;2023-08-12T05:23:04;100717.60;;;17.30
66372;BMP180;53168;51.146;17.120;2023-08-12T05:25:51;100726.60;;;17.30
66372;BMP180;53168;51.146;17.120;2023-08-12T05:28:33;100719.60;;;17.40
66372;BMP180;53168;51.146;17.120;2023-08-12T05:31:08;100718.00;;;17.40
66372;BMP180;53168;51.146;17.120;2023-08-12T05:33:43;100714.40;;;17.50
66372;BMP180;53168;51.146;17.120;2023-08-12T05:36:17;100709.80;;;17.50
66372;BMP180;53168;51.146;17.120;2023-08-12T05:38:52;100709.20;;;17.60
66372;BMP180;53168;51.146;17.120;2023-08-12T05:41:26;100702.40;;;17.70
66372;BMP180;53168;51.146;17.120;2023-08-12T05:44:00;100698.00;;;17.76
66372;BMP180;53168;51.146;17.120;2023-08-12T05:46:35;100701.20;;;17.80
66372;BMP180;53168;51.146;17.120;2023-08-12T05:49:20;100698.80;;;17.90
66372;BMP180;53168;51.146;17.120;2023-08-12T05:51:56;100695.60;;;18.10
66372;BMP180;53168;51.146;17.120;2023-08-12T05:54:54;100698.40;;;18.20
66372;BMP180;53168;51.146;17.120;2023-08-12T05:57:36;100693.00;;;18.40
66372;BMP180;53168;51.146;17.120;2023-08-12T06:00:13;100687.60;;;18.60
66372;BMP180;53168;51.146;17.120;2023-08-12T06:02:47;100684.20;;;18.86
66372;BMP180;53168;51.146;17.120;2023-08-12T06:05:34;100687.40;;;19.10
66372;BMP180;53168;51.146;17.120;2023-08-12T06:08:13;100690.40;;;19.22
66372;BMP180;53168;51.146;17.120;2023-08-12T06:10:46;100693.20;;;19.30
66372;BMP180;53168;51.146;17.120;2023-08-12T06:13:22;100690.00;;;19.40
66372;BMP180;53168;51.146;17.120;2023-08-12T06:15:55;100690.40;;;19.50
66372;BMP180;53168;51.146;17.120;2023-08-12T06:18:29;100684.20;;;19.60
66372;BMP180;53168;51.146;17.120;2023-08-12T06:21:06;100684.60;;;19.70
66372;BMP180;53168;51.146;17.120;2023-08-12T06:23:39;100681.20;;;19.80
66372;BMP180;53168;51.146;17.120;2023-08-12T06:26:13;100682.40;;;19.90
66372;BMP180;53168;51.146;17.120;2023-08-12T06:28:47;100677.80;;;19.92
66372;BMP180;53168;51.146;17.120;2023-08-12T06:31:21;100682.60;;;20.00
66372;BMP180;53168;51.146;17.120;2023-08-12T06:33:55;100684.60;;;20.16
66372;BMP180;53168;51.146;17.120;2023-08-12T06:36:29;100677.40;;;20.40
66372;BMP180;53168;51.146;17.120;2023-08-12T06:39:03;100677.00;;;20.60
66372;BMP180;53168;51.146;17.120;2023-08-12T06:41:37;100676.00;;;20.90
66372;BMP180;53168;51.146;17.120;2023-08-12T06:44:11;100676.80;;;21.04
66372;BMP180;53168;51.146;17.120;2023-08-12T06:46:46;100675.20;;;21.30
66372;BMP180;53168;51.146;17.120;2023-08-12T06:49:51;100673.20;;;21.52
66372;BMP180;53168;51.146;17.120;2023-08-12T06:52:26;100673.40;;;21.80
66372;BMP180;53168;51.146;17.120;2023-08-12T06:55:09;100667.00;;;22.00
66372;BMP180;53168;51.146;17.120;2023-08-12T06:57:43;100667.60;;;22.30
66372;BMP180;53168;51.146;17.120;2023-08-12T07:00:18;100665.80;;;22.54
66372;BMP180;53168;51.146;17.120;2023-08-12T07:02:56;100663.20;;;22.70
66372;BMP180;53168;51.146;17.120;2023-08-12T07:05:35;100661.80;;;22.80
66372;BMP180;53168;51.146;17.120;2023-08-12T07:08:10;100659.80;;;22.90
66372;BMP180;53168;51.146;17.120;2023-08-12T07:10:47;100661.40;;;22.90
66372;BMP180;53168;51.146;17.120;2023-08-12T07:13:24;100666.40;;;22.94
66372;BMP180;53168;51.146;17.120;2023-08-12T07:16:04;100671.40;;;22.90
66372;BMP180;53168;51.146;17.120;2023-08-12T07:18:39;100665.20;;;22.90
66372;BMP180;53168;51.146;17.120;2023-08-12T07:21:14;100671.20;;;22.90
66372;BMP180;53168;51.146;17.120;2023-08-12T07:23:50;100666.00;;;22.90
66372;BMP180;53168;51.146;17.120;2023-08-12T07:26:36;100668.40;;;22.92
66372;BMP180;53168;51.146;17.120;2023-08-12T07:29:11;100671.80;;;23.00
66372;BMP180;53168;51.146;17.120;2023-08-12T07:32:12;100673.40;;;23.00
66372;BMP180;53168;51.146;17.120;2023-08-12T07:35:00;100670.80;;;23.00
66372;BMP180;53168;51.146;17.120;2023-08-12T07:37:45;100670.80;;;23.00
66372;BMP180;53168;51.146;17.120;2023-08-12T07:40:19;100667.20;;;23.00
66372;BMP180;53168;51.146;17.120;2023-08-12T07:42:55;100665.20;;;23.00
66372;BMP180;53168;51.146;17.120;2023-08-12T07:45:33;100659.80;;;23.00
66372;BMP180;53168;51.146;17.120;2023-08-12T07:48:08;100656.00;;;23.10
66372;BMP180;53168;51.146;17.120;2023-08-12T07:50:42;100655.00;;;23.20
66372;BMP180;53168;51.146;17.120;2023-08-12T07:53:17;100654.40;;;23.30
66372;BMP180;53168;51.146;17.120;2023-08-12T07:55:51;100650.20;;;23.40
66372;BMP180;53168;51.146;17.120;2023-08-12T07:58:26;100648.00;;;23.50
66372;BMP180;53168;51.146;17.120;2023-08-12T08:01:02;100646.80;;;23.64
66372;BMP180;53168;51.146;17.120;2023-08-12T08:03:42;100643.00;;;23.76
66372;BMP180;53168;51.146;17.120;2023-08-12T08:22:33;100643.40;;;24.44
66372;BMP180;53168;51.146;17.120;2023-08-12T08:28:19;100642.20;;;24.70
66372;BMP180;53168;51.146;17.120;2023-08-12T08:30:58;100643.00;;;24.80
66372;BMP180;53168;51.146;17.120;2023-08-12T08:33:33;100640.40;;;24.90
66372;BMP180;53168;51.146;17.120;2023-08-12T08:36:21;100640.80;;;25.00
66372;BMP180;53168;51.146;17.120;2023-08-12T08:38:58;100636.40;;;25.00
66372;BMP180;53168;51.146;17.120;2023-08-12T08:41:46;100638.80;;;25.10
66372;BMP180;53168;51.146;17.120;2023-08-12T08:44:52;100634.60;;;25.22
66372;BMP180;53168;51.146;17.120;2023-08-12T08:47:55;100629.80;;;25.40
66372;BMP180;53168;51.146;17.120;2023-08-12T08:54:10;100632.80;;;25.70
66372;BMP180;53168;51.146;17.120;2023-08-12T08:57:01;100628.00;;;25.80
66372;BMP180;53168;51.146;17.120;2023-08-12T09:00:23;100627.40;;;26.00
66372;BMP180;53168;51.146;17.120;2023-08-12T09:03:23;100630.80;;;26.20
66372;BMP180;53168;51.146;17.120;2023-08-12T09:06:04;100629.60;;;26.20
66372;BMP180;53168;51.146;17.120;2023-08-12T09:08:52;100625.80;;;26.30
66372;BMP180;53168;51.146;17.120;2023-08-12T09:11:34;100630.80;;;26.44
66372;BMP180;53168;51.146;17.120;2023-08-12T09:14:11;100629.20;;;26.50
66372;BMP180;53168;51.146;17.120;2023-08-12T09:17:11;100627.60;;;26.50
66372;BMP180;53168;51.146;17.120;2023-08-12T09:20:12;100626.00;;;26.50
66372;BMP180;53168;51.146;17.120;2023-08-12T09:26:24;100629.00;;;26.60
66372;BMP180;53168;51.146;17.120;2023-08-12T09:29:00;100628.80;;;26.70
66372;BMP180;53168;51.146;17.120;2023-08-12T09:31:34;100628.80;;;26.80
66372;BMP180;53168;51.146;17.120;2023-08-12T09:34:10;100622.80;;;26.90
66372;BMP180;53168;51.146;17.120;2023-08-12T09:41:07;100611.60;;;27.00
66372;BMP180;53168;51.146;17.120;2023-08-12T09:44:11;100610.20;;;27.10
66372;BMP180;53168;51.146;17.120;2023-08-12T09:47:19;100611.40;;;27.16
66372;BMP180;53168;51.146;17.120;2023-08-12T09:53:18;100612.20;;;27.32
66372;BMP180;53168;51.146;17.120;2023-08-12T09:55:56;100611.60;;;27.40
66372;BMP180;53168;51.146;17.120;2023-08-12T09:58:36;100607.00;;;27.40
66372;BMP180;53168;51.146;17.120;2023-08-12T10:01:12;100606.00;;;27.40
66372;BMP180;53168;51.146;17.120;2023-08-12T10:03:51;100601.20;;;27.44
66372;BMP180;53168;51.146;17.120;2023-08-12T10:06:34;100601.40;;;27.50
66372;BMP180;53168;51.146;17.120;2023-08-12T10:09:11;100603.00;;;27.60
66372;BMP180;53168;51.146;17.120;2023-08-12T10:11:47;100600.20;;;27.70
66372;BMP180;53168;51.146;17.120;2023-08-12T10:14:24;100597.40;;;27.80
66372;BMP180;53168;51.146;17.120;2023-08-12T10:16:59;100595.80;;;27.90
66372;BMP180;53168;51.146;17.120;2023-08-12T10:19:44;100597.80;;;28.10
66372;BMP180;53168;51.146;17.120;2023-08-12T10:22:20;100592.40;;;28.20
66372;BMP180;53168;51.146;17.120;2023-08-12T10:24:55;100589.40;;;28.30
66372;BMP180;53168;51.146;17.120;2023-08-12T10:27:30;100585.60;;;28.40
66372;BMP180;53168;51.146;17.120;2023-08-12T10:30:08;100582.20;;;28.48
66372;BMP180;53168;51.146;17.120;2023-08-12T10:32:43;100580.20;;;28.46
66372;BMP180;53168;51.146;17.120;2023-08-12T10:35:20;100578.40;;;28.46
66372;BMP180;53168;51.146;17.120;2023-08-12T10:37:55;100576.20;;;28.50
66372;BMP180;53168;51.146;17.120;2023-08-12T10:40:29;100572.20;;;28.60
66372;BMP180;53168;51.146;17.120;2023-08-12T10:43:04;100564.20;;;28.80
66372;BMP180;53168;51.146;17.120;2023-08-12T10:45:51;100560.60;;;28.80
66372;BMP180;53168;51.146;17.120;2023-08-12T10:48:35;100554.60;;;28.90
66372;BMP180;53168;51.146;17.120;2023-08-12T10:51:10;100556.40;;;28.96
66372;BMP180;53168;51.146;17.120;2023-08-12T10:53:54;100551.20;;;29.00
66372;BMP180;53168;51.146;17.120;2023-08-12T10:57:12;100551.40;;;29.20
66372;BMP180;53168;51.146;17.120;2023-08-12T10:59:59;100553.00;;;29.26
66372;BMP180;53168;51.146;17.120;2023-08-12T11:02:38;100546.00;;;29.32
66372;BMP180;53168;51.146;17.120;2023-08-12T11:05:17;100545.00;;;29.44
66372;BMP180;53168;51.146;17.120;2023-08-12T11:08:01;100546.60;;;29.50
66372;BMP180;53168;51.146;17.120;2023-08-12T11:10:42;100543.80;;;29.58
66372;BMP180;53168;51.146;17.120;2023-08-12T11:13:18;100539.00;;;29.60
66372;BMP180;53168;51.146;17.120;2023-08-12T11:15:54;100538.20;;;29.70
66372;BMP180;53168;51.146;17.120;2023-08-12T11:18:40;100544.20;;;29.80
66372;BMP180;53168;51.146;17.120;2023-08-12T11:21:16;100539.00;;;29.90
66372;BMP180;53168;51.146;17.120;2023-08-12T11:23:56;100529.60;;;30.00
66372;BMP180;53168;51.146;17.120;2023-08-12T11:27:02;100529.20;;;30.10
66372;BMP180;53168;51.146;17.120;2023-08-12T11:29:36;100532.20;;;30.14
66372;BMP180;53168;51.146;17.120;2023-08-12T11:32:15;100488.20;;;30.72
66372;BMP180;53168;51.146;17.120;2023-08-12T11:34:52;100459.40;;;32.96
66372;BMP180;53168;51.146;17.120;2023-08-12T11:37:36;100453.20;;;33.94
66372;BMP180;53168;51.146;17.120;2023-08-12T11:40:16;100449.60;;;34.60
66372;BMP180;53168;51.146;17.120;2023-08-12T11:42:54;100443.60;;;35.10
66372;BMP180;53168;51.146;17.120;2023-08-12T11:45:29;100444.20;;;35.30
66372;BMP180;53168;51.146;17.120;2023-08-12T11:48:04;100441.00;;;35.60
66372;BMP180;53168;51.146;17.120;2023-08-12T11:50:39;100429.80;;;36.10
66372;BMP180;53168;51.146;17.120;2023-08-12T11:53:18;100419.60;;;36.30
66372;BMP180;53168;51.146;17.120;2023-08-12T11:55:53;100411.40;;;36.56
66372;BMP180;53168;51.146;17.120;2023-08-12T11:58:37;100402.40;;;36.76
66372;BMP180;53168;51.146;17.120;2023-08-12T12:01:28;100393.00;;;37.00
66372;BMP180;53168;51.146;17.120;2023-08-12T12:04:06;100393.60;;;37.20
66372;BMP180;53168;51.146;17.120;2023-08-12T12:06:40;100406.20;;;37.50
66372;BMP180;53168;51.146;17.120;2023-08-12T12:09:17;100414.20;;;37.60
66372;BMP180;53168;51.146;17.120;2023-08-12T12:11:55;100425.00;;;37.60
66372;BMP180;53168;51.146;17.120;2023-08-12T12:14:30;100438.60;;;37.60
66372;BMP180;53168;51.146;17.120;2023-08-12T13:31:03;100430.00;;;41.26
66372;BMP180;53168;51.146;17.120;2023-08-12T13:33:46;100431.20;;;41.44
66372;BMP180;53168;51.146;17.120;2023-08-12T13:36:22;100430.20;;;41.40
66372;BMP180;53168;51.146;17.120;2023-08-12T13:38:54;100423.60;;;41.50
66372;BMP180;53168;51.146;17.120;2023-08-12T13:41:25;100421.40;;;41.64
66372;BMP180;53168;51.146;17.120;2023-08-12T13:44:04;100421.20;;;41.70
66372;BMP180;53168;51.146;17.120;2023-08-12T13:46:35;100416.40;;;41.80
66372;BMP180;53168;51.146;17.120;2023-08-12T13:49:12;100412.20;;;42.00
66372;BMP180;53168;51.146;17.120;2023-08-12T13:51:49;100406.20;;;42.20
66372;BMP180;53168;51.146;17.120;2023-08-12T13:54:22;100423.20;;;42.02
66372;BMP180;53168;51.146;17.120;2023-08-12T13:56:56;100406.80;;;41.70
66372;BMP180;53168;51.146;17.120;2023-08-12T13:59:27;100402.60;;;41.90
66372;BMP180;53168;51.146;17.120;2023-08-12T14:01:59;100400.00;;;41.80
66372;BMP180;53168;51.146;17.120;2023-08-12T14:04:32;100399.20;;;41.70
66372;BMP180;53168;51.146;17.120;2023-08-12T14:07:03;100388.40;;;41.78
66372;BMP180;53168;51.146;17.120;2023-08-12T14:09:35;100387.00;;;41.90
66372;BMP180;53168;51.146;17.120;2023-08-12T14:12:09;100386.80;;;41.90
66372;BMP180;53168;51.146;17.120;2023-08-12T14:14:41;100383.20;;;42.10
66372;BMP180;53168;51.146;17.120;2023-08-12T14:17:10;100384.40;;;42.26
66372;BMP180;53168;51.146;17.120;2023-08-12T14:19:48;100375.40;;;42.40
66372;BMP180;53168;51.146;17.120;2023-08-12T14:22:18;100369.20;;;42.50
66372;BMP180;53168;51.146;17.120;2023-08-12T14:24:49;100368.20;;;42.60
66372;BMP180;53168;51.146;17.120;2023-08-12T14:27:23;100368.80;;;42.98
66372;BMP180;53168;51.146;17.120;2023-08-12T14:29:52;100388.00;;;42.22
66372;BMP180;53168;51.146;17.120;2023-08-12T14:32:27;100376.00;;;40.60
66372;BMP180;53168;51.146;17.120;2023-08-12T14:34:56;100354.60;;;40.30
66372;BMP180;53168;51.146;17.120;2023-08-12T14:37:26;100353.20;;;40.74
66372;BMP180;53168;51.146;17.120;2023-08-12T14:39:57;100343.00;;;41.22
66372;BMP180;53168;51.146;17.120;2023-08-12T14:42:27;100340.60;;;41.50
66372;BMP180;53168;51.146;17.120;2023-08-12T14:44:57;100338.00;;;41.70
66372;BMP180;53168;51.146;17.120;2023-08-12T14:47:26;100327.60;;;41.20
66372;BMP180;53168;51.146;17.120;2023-08-12T14:49:56;100325.60;;;41.40
66372;BMP180;53168;51.146;17.120;2023-08-12T14:52:26;100323.00;;;41.50
66372;BMP180;53168;51.146;17.120;2023-08-12T14:54:56;100355.80;;;40.98
66372;BMP180;53168;51.146;17.120;2023-08-12T14:57:26;100329.80;;;40.00
66372;BMP180;53168;51.146;17.120;2023-08-12T14:59:55;100319.60;;;40.30
66372;BMP180;53168;51.146;17.120;2023-08-12T15:02:25;100314.00;;;40.54
66372;BMP180;53168;51.146;17.120;2023-08-12T15:04:55;100308.20;;;40.80
66372;BMP180;53168;51.146;17.120;2023-08-12T15:07:24;100301.80;;;41.10
66372;BMP180;53168;51.146;17.120;2023-08-12T15:09:54;100302.20;;;41.48
66372;BMP180;53168;51.146;17.120;2023-08-12T15:12:27;100298.80;;;41.60
66372;BMP180;53168;51.146;17.120;2023-08-12T15:14:57;100298.00;;;41.64
66372;BMP180;53168;51.146;17.120;2023-08-12T15:17:26;100290.00;;;41.84
66372;BMP180;53168;51.146;17.120;2023-08-12T15:19:56;100286.40;;;42.10
66372;BMP180;53168;51.146;17.120;2023-08-12T15:22:26;100283.40;;;42.20
66372;BMP180;53168;51.146;17.120;2023-08-12T15:24:56;100284.00;;;42.30
66372;BMP180;53168;51.146;17.120;2023-08-12T15:27:26;100280.00;;;42.20
66372;BMP180;53168;51.146;17.120;2023-08-12T15:29:56;100280.80;;;42.10
66372;BMP180;53168;51.146;17.120;2023-08-12T15:32:26;100277.40;;;42.00
66372;BMP180;53168;51.146;17.120;2023-08-12T15:34:56;100278.60;;;42.10
66372;BMP180;53168;51.146;17.120;2023-08-12T15:37:28;100280.20;;;42.00
66372;BMP180;53168;51.146;17.120;2023-08-12T15:40:00;100278.80;;;41.70
66372;BMP180;53168;51.146;17.120;2023-08-12T15:42:33;100275.40;;;41.70
66372;BMP180;53168;51.146;17.120;2023-08-12T15:45:08;100280.60;;;41.44
66372;BMP180;53168;51.146;17.120;2023-08-12T15:47:43;100275.20;;;41.10
66372;BMP180;53168;51.146;17.120;2023-08-12T15:50:17;100266.80;;;41.10
66372;BMP180;53168;51.146;17.120;2023-08-12T15:52:49;100259.60;;;41.00
66372;BMP180;53168;51.146;17.120;2023-08-12T15:55:20;100266.40;;;40.68
66372;BMP180;53168;51.146;17.120;2023-08-12T15:57:51;100251.80;;;40.50
66372;BMP180;53168;51.146;17.120;2023-08-12T16:00:22;100246.80;;;40.64
66372;BMP180;53168;51.146;17.120;2023-08-12T16:02:53;100246.80;;;40.70
66372;BMP180;53168;51.146;17.120;2023-08-12T16:05:23;100242.40;;;40.76
66372;BMP180;53168;51.146;17.120;2023-08-12T16:07:54;100273.40;;;40.90
66372;BMP180;53168;51.146;17.120;2023-08-12T16:10:25;100245.80;;;40.50
66372;BMP180;53168;51.146;17.120;2023-08-12T16:12:57;100240.00;;;40.50
66372;BMP180;53168;51.146;17.120;2023-08-12T16:15:28;100237.40;;;40.50
66372;BMP180;53168;51.146;17.120;2023-08-12T16:18:01;100235.40;;;40.70
66372;BMP180;53168;51.146;17.120;2023-08-12T16:20:30;100237.60;;;40.70
66372;BMP180;53168;51.146;17.120;2023-08-12T16:23:00;100228.00;;;40.74
66372;BMP180;53168;51.146;17.120;2023-08-12T16:25:30;100285.40;;;40.80
66372;BMP180;53168;51.146;17.120;2023-08-12T16:28:01;100246.60;;;39.50
66372;BMP180;53168;51.146;17.120;2023-08-12T16:30:31;100222.00;;;39.20
66372;BMP180;53168;51.146;17.120;2023-08-12T16:33:01;100292.00;;;38.62